Time,TemperatureF,DewpointF,PressureIn,WindDirection,WindDirectionDegrees,WindSpeedMPH,WindSpeedGustMPH,Humidity,HourlyPrecipIn,Conditions,Clouds,dailyrainin,SoftwareType,DateUTC
2013-02-08 00:00:00,48.4,32.1,27.36,North,0,0.0,0.0,53,0.00,,,0.00,WUHU216HW,2013-02-08 07:00:00,
2013-02-08 00:30:00,47.9,32.4,27.35,ENE,68,0.0,0.0,55,0.00,,,0.00,WUHU216HW,2013-02-08 07:30:00,
2013-02-08 00:59:00,47.5,32.6,27.35,ENE,68,0.0,0.0,56,0.00,,,0.00,WUHU216HW,2013-02-08 07:59:00,
2013-02-08 01:00:00,47.5,32.6,27.35,ENE,68,0.0,0.0,56,0.00,,,0.00,WUHU216HW,2013-02-08 08:00:00,
2013-02-08 01:30:00,46.8,32.3,27.35,NNE,23,0.0,0.0,57,0.00,,,0.00,WUHU216HW,2013-02-08 08:30:00,
2013-02-08 01:59:00,45.7,31.3,27.35,North,0,0.7,0.7,57,0.00,,,0.00,WUHU216HW,2013-02-08 08:59:00,
2013-02-08 02:00:00,45.7,31.3,27.34,North,0,0.7,0.7,57,0.00,,,0.00,WUHU216HW,2013-02-08 09:00:00,
2013-02-08 02:30:00,46.4,32.0,27.33,ENE,68,0.4,0.4,57,0.00,,,0.00,WUHU216HW,2013-02-08 09:30:00,
2013-02-08 02:59:00,45.7,31.8,27.33,SSE,158,0.0,0.0,58,0.00,,,0.00,WUHU216HW,2013-02-08 09:59:00,
2013-02-08 03:00:00,45.7,31.8,27.33,SE,135,0.2,0.2,58,0.00,,,0.00,WUHU216HW,2013-02-08 10:00:00,
2013-02-08 03:30:00,45.4,31.9,27.33,North,0,0.0,0.0,59,0.00,,,0.00,WUHU216HW,2013-02-08 10:30:00,
2013-02-08 03:59:00,44.8,31.9,27.32,NE,45,0.0,0.0,60,0.00,,,0.00,WUHU216HW,2013-02-08 10:59:00,
2013-02-08 04:00:00,44.8,31.9,27.32,NE,45,0.0,0.0,60,0.00,,,0.00,WUHU216HW,2013-02-08 11:00:00,
2013-02-08 04:30:00,45.0,32.4,27.31,SSE,158,0.0,0.0,61,0.00,,,0.00,WUHU216HW,2013-02-08 11:30:00,
2013-02-08 04:59:00,44.8,32.2,27.31,NNE,23,0.0,0.0,61,0.00,,,0.00,WUHU216HW,2013-02-08 11:59:00,
2013-02-08 05:00:00,44.8,32.2,27.31,NNE,23,0.0,0.0,61,0.00,,,0.00,WUHU216HW,2013-02-08 12:00:00,
2013-02-08 05:30:00,44.5,32.2,27.30,East,90,0.0,0.0,62,0.00,,,0.00,WUHU216HW,2013-02-08 12:30:00,
2013-02-08 05:59:00,44.3,32.5,27.30,SSE,158,0.2,0.2,63,0.00,,,0.00,WUHU216HW,2013-02-08 12:59:00,
2013-02-08 06:00:00,44.3,32.5,27.30,SSE,158,0.0,0.2,63,0.00,,,0.00,WUHU216HW,2013-02-08 13:00:00,
2013-02-08 06:30:00,43.6,31.8,27.30,ENE,68,0.4,0.4,63,0.00,,,0.00,WUHU216HW,2013-02-08 13:30:00,
2013-02-08 06:59:00,43.4,32.0,27.30,East,90,0.0,0.0,64,0.00,,,0.00,WUHU216HW,2013-02-08 13:59:00,
2013-02-08 07:00:00,43.4,32.0,27.30,East,90,0.0,0.0,64,0.00,,,0.00,WUHU216HW,2013-02-08 14:00:00,
2013-02-08 07:30:00,43.7,32.3,27.30,SSE,158,0.0,0.0,64,0.00,,,0.00,WUHU216HW,2013-02-08 14:30:00,
2013-02-08 07:59:00,44.6,32.9,27.30,North,0,0.0,0.0,63,0.00,,,0.00,WUHU216HW,2013-02-08 14:59:00,
2013-02-08 08:00:00,44.6,32.9,27.30,North,0,0.0,0.0,63,0.00,,,0.00,WUHU216HW,2013-02-08 15:00:00,
2013-02-08 08:30:00,46.4,34.1,27.30,WSW,248,1.1,1.1,62,0.00,,,0.00,WUHU216HW,2013-02-08 15:30:00,
2013-02-08 08:59:00,49.0,36.1,27.31,ESE,113,0.0,0.0,61,0.00,,,0.00,WUHU216HW,2013-02-08 15:59:00,
2013-02-08 09:00:00,49.0,36.1,27.31,ESE,113,0.0,0.0,61,0.00,,,0.00,WUHU216HW,2013-02-08 16:00:00,
2013-02-08 09:30:00,51.7,36.4,27.32,North,0,1.1,1.1,56,0.00,,,0.00,WUHU216HW,2013-02-08 16:30:00,
2013-02-08 09:59:00,58.3,34.1,27.32,NW,315,1.1,1.1,40,0.00,,,0.00,WUHU216HW,2013-02-08 16:59:00,
2013-02-08 10:00:00,58.3,34.1,27.32,NW,315,1.3,1.3,40,0.00,,,0.00,WUHU216HW,2013-02-08 17:00:00,
2013-02-08 10:30:00,61.0,29.4,27.32,NW,315,1.8,1.8,30,0.00,,,0.00,WUHU216HW,2013-02-08 17:30:00,
2013-02-08 10:59:00,62.3,29.5,27.32,WNW,293,1.8,1.8,29,0.00,,,0.00,WUHU216HW,2013-02-08 17:59:00,
2013-02-08 11:00:00,62.3,29.5,27.32,West,270,2.2,2.2,29,0.00,,,0.00,WUHU216HW,2013-02-08 18:00:00,
2013-02-08 11:30:00,63.4,30.4,27.31,WSW,248,0.0,0.0,29,0.00,,,0.00,WUHU216HW,2013-02-08 18:30:00,
2013-02-08 12:00:00,65.2,31.1,27.30,West,270,3.1,3.1,28,0.00,,,0.00,WUHU216HW,2013-02-08 19:00:00,
2013-02-08 12:30:00,66.6,32.3,27.29,WSW,248,2.7,2.7,28,0.00,,,0.00,WUHU216HW,2013-02-08 19:30:00,
2013-02-08 13:00:00,67.1,27.7,27.27,SW,225,5.1,5.1,23,0.00,,,0.00,WUHU216HW,2013-02-08 20:00:00,
2013-02-08 13:30:00,67.0,25.6,27.26,WSW,248,4.0,4.0,21,0.00,,,0.00,WUHU216HW,2013-02-08 20:30:00,
2013-02-08 14:00:00,67.5,23.5,27.25,West,270,4.0,4.0,19,0.00,,,0.00,WUHU216HW,2013-02-08 21:00:00,
2013-02-08 14:30:00,67.9,23.8,27.24,WSW,248,2.5,2.5,19,0.00,,,0.00,WUHU216HW,2013-02-08 21:30:00,
2013-02-08 15:00:00,67.3,20.2,27.22,SW,225,2.5,2.5,17,0.00,,,0.00,WUHU216HW,2013-02-08 22:00:00,
2013-02-08 15:30:00,67.1,21.6,27.22,West,270,4.5,4.5,18,0.00,,,0.00,WUHU216HW,2013-02-08 22:30:00,
2013-02-08 15:36:00,67.1,21.6,27.22,West,270,4.5,4.5,18,0.00,,,0.00,WUHU216HW,2013-02-08 22:36:00,
2013-02-08 16:00:00,67.5,23.5,27.21,WNW,293,3.4,3.6,19,0.00,,,0.00,WUHU216HW,2013-02-08 23:00:00,
2013-02-08 16:05:00,67.5,23.5,27.21,West,270,3.6,3.6,19,0.00,,,0.00,WUHU216HW,2013-02-08 23:05:00,
2013-02-08 16:30:00,67.7,23.7,27.21,SW,225,3.4,3.4,19,0.00,,,0.00,WUHU216HW,2013-02-08 23:30:00,
2013-02-08 16:36:00,67.5,25.1,27.21,SSW,203,4.0,4.0,20,0.00,,,0.00,WUHU216HW,2013-02-08 23:36:00,
2013-02-08 16:41:00,67.5,25.1,27.21,SSW,203,4.0,4.0,20,0.00,,,0.00,WUHU216HW,2013-02-08 23:41:00,
2013-02-08 17:00:00,67.0,25.6,27.20,SW,225,1.8,1.8,21,0.00,,,0.00,WUHU216HW,2013-02-09 00:00:00,
2013-02-08 17:30:00,65.9,24.7,27.20,WSW,248,3.4,3.4,21,0.00,,,0.00,WUHU216HW,2013-02-09 00:30:00,
2013-02-08 18:00:00,65.2,25.1,27.19,WSW,248,4.0,4.0,22,0.00,,,0.00,WUHU216HW,2013-02-09 01:00:00,
2013-02-08 18:30:00,63.4,23.6,27.19,WNW,293,2.0,2.0,22,0.00,,,0.00,WUHU216HW,2013-02-09 01:30:00,
2013-02-08 19:00:00,61.4,23.0,27.19,WNW,293,1.3,1.3,23,0.00,,,0.00,WUHU216HW,2013-02-09 02:00:00,
2013-02-08 19:30:00,60.1,23.8,27.19,West,270,0.4,0.4,25,0.00,,,0.00,WUHU216HW,2013-02-09 02:30:00,
2013-02-08 20:00:00,59.8,25.4,27.20,NNE,23,0.0,0.0,27,0.00,,,0.00,WUHU216HW,2013-02-09 03:00:00,
2013-02-08 20:30:00,58.7,24.5,27.19,West,270,0.2,0.2,27,0.00,,,0.00,WUHU216HW,2013-02-09 03:30:00,
2013-02-08 21:00:00,58.0,33.0,27.20,NW,315,3.1,3.1,39,0.00,,,0.00,WUHU216HW,2013-02-09 04:00:00,
2013-02-08 21:30:00,56.9,34.5,27.21,WNW,293,6.9,6.9,43,0.00,,,0.00,WUHU216HW,2013-02-09 04:30:00,
2013-02-08 22:00:00,55.6,31.7,27.22,West,270,4.0,4.0,40,0.00,,,0.00,WUHU216HW,2013-02-09 05:00:00,
2013-02-08 22:05:00,55.6,31.7,27.22,SW,225,4.7,4.7,40,0.00,,,0.00,WUHU216HW,2013-02-09 05:05:00,
2013-02-08 22:10:00,55.6,31.7,27.22,SW,225,4.7,4.7,40,0.00,,,0.00,WUHU216HW,2013-02-09 05:10:00,
2013-02-08 22:30:00,54.7,25.3,27.24,SW,225,3.1,3.1,32,0.00,,,0.00,WUHU216HW,2013-02-09 05:30:00,
2013-02-08 22:35:00,54.7,25.3,27.24,WSW,248,2.5,3.1,32,0.00,,,0.00,WUHU216HW,2013-02-09 05:35:00,
2013-02-08 22:40:00,54.7,25.3,27.24,WSW,248,2.5,2.5,32,0.00,,,0.00,WUHU216HW,2013-02-09 05:40:00,
2013-02-08 23:00:00,53.8,25.2,27.24,NW,315,1.1,1.1,33,0.00,,,0.00,WUHU216HW,2013-02-09 06:00:00,
2013-02-08 23:30:00,53.8,25.9,27.24,WNW,293,0.0,0.0,34,0.00,,,0.00,WUHU216HW,2013-02-09 06:30:00,